Time;durP1;ratioP1;P1;durP2;ratioP2;P2;SDS_P1;SDS_P2;PMS_P1;PMS_P2;Temp;Humidity;BMP_temperature;BMP_pressure;BME280_temperature;BME280_humidity;BME280_pressure;Samples;Min_cycle;Max_cycle;Signal;HPM_P1;HPM_P2
2023/03/30 13:50:19;;;;;;;0.73;0.30;;;17.70;70.20;;;;;;5588301;22;45501;-68
2023/03/30 13:52:47;;;;;;;1.88;0.55;;;17.80;69.80;;;;;;5076543;28;45362;-72
2023/03/30 13:55:20;;;;;;;5.60;0.98;;;17.80;72.40;;;;;;5084532;28;45273;-70
2023/03/30 13:57:47;;;;;;;5.28;0.70;;;17.90;75.30;;;;;;5085087;28;48721;-73
2023/03/30 14:00:32;;;;;;;3.72;0.70;;;17.90;77.90;;;;;;5084346;28;45257;-73
2023/03/30 14:03:00;;;;;;;2.72;0.63;;;17.80;73.60;;;;;;5088644;28;45482;-72
2023/03/30 14:05:29;;;;;;;1.70;0.50;;;17.80;73.50;;;;;;5085676;28;45438;-73
2023/03/30 14:07:57;;;;;;;1.98;0.50;;;17.80;73.60;;;;;;5085154;28;46335;-73
2023/03/30 14:10:25;;;;;;;6.07;0.43;;;17.70;74.10;;;;;;5085279;28;45328;-73
2023/03/30 14:12:54;;;;;;;0.47;0.22;;;17.70;74.60;;;;;;5085228;28;45304;-73
2023/03/30 14:15:23;;;;;;;1.45;0.30;;;17.70;74.90;;;;;;5084168;28;45409;-73
2023/03/30 14:17:53;;;;;;;0.65;0.40;;;17.70;75.60;;;;;;5081241;28;45328;-73
2023/03/30 14:20:39;;;;;;;2.92;0.38;;;17.70;76.30;;;;;;5082990;28;45229;-73
2023/03/30 14:23:06;;;;;;;0.98;0.60;;;17.60;76.10;;;;;;5080177;28;45294;-72
2023/03/30 14:25:37;;;;;;;0.75;0.40;;;17.60;76.20;;;;;;5085726;28;45402;-73
2023/03/30 14:28:12;;;;;;;1.38;0.30;;;17.60;76.90;;;;;;5079370;28;46493;-73
2023/03/30 14:30:39;;;;;;;1.85;0.60;;;17.60;77.70;;;;;;5084016;28;45464;-73
2023/03/30 14:33:08;;;;;;;1.35;0.40;;;17.50;78.00;;;;;;5084559;28;45354;-72
2023/03/30 14:35:40;;;;;;;1.50;0.50;;;17.50;78.50;;;;;;5083894;28;46549;-73
2023/03/30 14:38:11;;;;;;;1.33;0.50;;;17.50;78.80;;;;;;5079773;28;45248;-73
2023/03/30 14:40:39;;;;;;;2.10;0.55;;;17.50;79.10;;;;;;5084617;28;45383;-73
2023/03/30 14:43:07;;;;;;;2.30;0.50;;;17.50;79.40;;;;;;5083814;28;45468;-72
2023/03/30 14:45:34;;;;;;;1.13;0.35;;;17.50;79.80;;;;;;5082975;28;45582;-72
2023/03/30 14:48:01;;;;;;;1.20;0.50;;;17.50;79.60;;;;;;5085053;28;45730;-72
2023/03/30 14:50:28;;;;;;;1.00;0.52;;;17.50;79.80;;;;;;5084606;28;45426;-73
2023/03/30 14:52:57;;;;;;;0.60;0.40;;;17.50;79.90;;;;;;5085516;28;45344;-73
2023/03/30 14:55:25;;;;;;;2.13;0.43;;;17.50;80.20;;;;;;5087504;28;45389;-73
2023/03/30 14:57:54;;;;;;;2.85;0.43;;;17.50;80.70;;;;;;5083739;28;47972;-73
2023/03/30 15:00:23;;;;;;;1.65;0.63;;;17.50;81.00;;;;;;5083691;28;45364;-72
2023/03/30 15:02:53;;;;;;;1.45;0.38;;;17.50;81.50;;;;;;5084593;28;45273;-73
2023/03/30 15:05:23;;;;;;;0.60;0.30;;;17.50;81.60;;;;;;5084185;28;45404;-73
2023/03/30 15:07:51;;;;;;;1.55;0.40;;;17.50;81.40;;;;;;5083574;28;47141;-72
2023/03/30 15:10:24;;;;;;;2.15;0.40;;;17.50;81.60;;;;;;5083552;28;45489;-72
2023/03/30 15:12:55;;;;;;;1.02;0.38;;;17.60;81.60;;;;;;5077780;28;45210;-72
2023/03/30 15:15:26;;;;;;;1.38;0.50;;;17.60;81.60;;;;;;5083830;28;45483;-73
2023/03/30 15:17:53;;;;;;;2.15;0.60;;;17.60;81.30;;;;;;5084616;28;47704;-73
2023/03/30 15:20:20;;;;;;;0.85;0.35;;;17.60;81.60;;;;;;5083104;28;45385;-72
2023/03/30 15:22:50;;;;;;;1.10;0.20;;;17.60;81.60;;;;;;5079221;28;45411;-72
2023/03/30 15:25:20;;;;;;;3.03;0.40;;;17.70;80.20;;;;;;5083611;28;45391;-72
2023/03/30 15:27:55;;;;;;;4.85;0.45;;;17.70;80.80;;;;;;5083660;28;47037;-72
2023/03/30 15:30:29;;;;;;;2.33;0.40;;;17.70;81.10;;;;;;5083512;28;45675;-73
2023/03/30 15:32:57;;;;;;;1.80;0.55;;;17.70;81.50;;;;;;5078493;28;45549;-72
2023/03/30 15:35:26;;;;;;;0.77;0.30;;;17.70;81.60;;;;;;5083397;28;45769;-73
2023/03/30 15:37:55;;;;;;;0.77;0.43;;;17.70;81.90;;;;;;5078062;28;45274;-72
2023/03/30 15:40:33;;;;;;;0.65;0.50;;;17.70;81.90;;;;;;5079610;28;46005;-73
2023/03/30 15:43:15;;;;;;;0.98;0.30;;;17.70;82.20;;;;;;5083659;28;45381;-72
2023/03/30 15:45:47;;;;;;;2.17;0.40;;;17.70;82.20;;;;;;5078721;28;45583;-72
2023/03/30 15:48:17;;;;;;;0.98;0.50;;;17.70;82.30;;;;;;5086181;28;45636;-73
2023/03/30 15:50:47;;;;;;;3.28;0.50;;;17.60;82.80;;;;;;5075797;28;45446;-73
2023/03/30 15:53:20;;;;;;;0.60;0.30;;;17.60;83.40;;;;;;5069157;28;45399;-73
2023/03/30 15:55:51;;;;;;;2.25;0.40;;;17.60;83.60;;;;;;5083077;28;45332;-72
2023/03/30 15:58:25;;;;;;;1.92;0.40;;;17.60;83.80;;;;;;5083016;28;48195;-72
2023/03/30 16:00:52;;;;;;;0.60;0.25;;;17.60;84.20;;;;;;5079077;28;45320;-72
2023/03/30 16:03:33;;;;;;;1.00;0.32;;;17.60;84.50;;;;;;5082223;28;45300;-72
2023/03/30 16:05:59;;;;;;;2.05;0.63;;;17.60;84.20;;;;;;5083330;28;45253;-73
2023/03/30 16:08:26;;;;;;;1.77;0.45;;;17.60;84.40;;;;;;5084989;27;46337;-73
2023/03/30 16:10:53;;;;;;;1.23;0.57;;;17.60;84.80;;;;;;5086308;28;45395;-72
2023/03/30 16:13:22;;;;;;;0.95;0.50;;;17.60;85.20;;;;;;5085720;28;45297;-72
2023/03/30 16:15:50;;;;;;;1.00;0.40;;;17.60;85.30;;;;;;5086879;28;45424;-72
2023/03/30 16:18:16;;;;;;;0.85;0.20;;;17.60;85.30;;;;;;5078905;28;47238;-73
2023/03/30 16:20:43;;;;;;;1.20;0.50;;;17.60;85.40;;;;;;5086004;28;45378;-72
2023/03/30 16:23:10;;;;;;;1.63;0.40;;;17.60;85.30;;;;;;5081768;28;45419;-73
2023/03/30 16:25:37;;;;;;;1.95;0.45;;;17.60;85.90;;;;;;5067582;28;45241;-73
2023/03/30 16:28:04;;;;;;;0.47;0.30;;;17.60;85.90;;;;;;5074042;28;47485;-73
2023/03/30 16:30:34;;;;;;;0.65;0.32;;;17.60;86.10;;;;;;5081900;28;45386;-73
2023/03/30 16:33:01;;;;;;;1.45;0.45;;;17.60;86.20;;;;;;5086693;28;45253;-73
2023/03/30 16:35:28;;;;;;;0.93;0.40;;;17.60;86.20;;;;;;5076684;28;45321;-73
2023/03/30 16:37:55;;;;;;;0.60;0.32;;;17.60;86.10;;;;;;5083974;28;46853;-73
2023/03/30 16:40:32;;;;;;;2.15;0.40;;;17.60;86.30;;;;;;5084136;28;45524;-70
2023/03/30 16:42:59;;;;;;;1.10;0.43;;;17.50;86.60;;;;;;5087638;28;45332;-73
2023/03/30 16:45:26;;;;;;;1.27;0.40;;;17.60;86.40;;;;;;5084227;28;45500;-73
2023/03/30 16:47:54;;;;;;;0.60;0.30;;;17.50;86.40;;;;;;5083425;28;47238;-72
2023/03/30 16:50:23;;;;;;;0.77;0.30;;;17.50;86.30;;;;;;5084933;28;45622;-72
2023/03/30 16:52:50;;;;;;;0.57;0.30;;;17.50;86.30;;;;;;5085134;28;45317;-73
2023/03/30 16:55:18;;;;;;;1.83;0.60;;;17.50;86.60;;;;;;5081733;28;45472;-73
2023/03/30 16:57:45;;;;;;;0.70;0.40;;;17.50;86.70;;;;;;5086642;28;46287;-73
2023/03/30 17:00:20;;;;;;;0.68;0.20;;;17.50;86.70;;;;;;5087001;28;45346;-73
2023/03/30 17:02:47;;;;;;;0.75;0.30;;;17.50;86.10;;;;;;5074913;28;45281;-73
2023/03/30 17:05:15;;;;;;;0.50;0.30;;;17.50;86.40;;;;;;5085580;28;45452;-73
2023/03/30 17:07:42;;;;;;;1.63;0.43;;;17.60;86.10;;;;;;5086205;28;47064;-73
2023/03/30 17:10:23;;;;;;;1.42;0.35;;;17.60;86.10;;;;;;5086295;28;45472;-73
2023/03/30 17:12:50;;;;;;;1.50;0.52;;;17.60;86.20;;;;;;5079008;28;45299;-73
2023/03/30 17:15:17;;;;;;;2.45;0.40;;;17.60;85.90;;;;;;5086232;28;45663;-73
2023/03/30 17:17:44;;;;;;;0.55;0.30;;;17.60;85.90;;;;;;5085937;28;46064;-73
2023/03/30 17:20:23;;;;;;;0.77;0.30;;;17.60;86.00;;;;;;5080050;28;45310;-73
2023/03/30 17:22:50;;;;;;;0.60;0.30;;;17.70;86.50;;;;;;5077450;28;45237;-73
2023/03/30 17:25:19;;;;;;;0.75;0.35;;;17.60;86.00;;;;;;5085575;28;45434;-72
2023/03/30 17:27:47;;;;;;;0.98;0.30;;;17.70;86.20;;;;;;5078717;28;47229;-72
2023/03/30 17:30:21;;;;;;;1.05;0.50;;;17.60;86.30;;;;;;5085059;28;45392;-72
2023/03/30 17:32:49;;;;;;;1.25;0.40;;;17.60;86.90;;;;;;5079362;28;45373;-73
2023/03/30 17:35:17;;;;;;;0.88;0.20;;;17.50;86.30;;;;;;5083508;28;45483;-73
2023/03/30 17:37:45;;;;;;;1.05;0.30;;;17.50;86.80;;;;;;5085502;28;48201;-72
2023/03/30 17:40:18;;;;;;;1.67;0.40;;;17.50;87.20;;;;;;5085886;28;46314;-73
2023/03/30 17:42:46;;;;;;;1.45;0.40;;;17.50;87.10;;;;;;5075524;28;45304;-73
2023/03/30 17:45:13;;;;;;;0.82;0.43;;;17.50;87.80;;;;;;5085424;28;45510;-73
2023/03/30 17:47:40;;;;;;;0.45;0.30;;;17.50;88.20;;;;;;5085609;28;46952;-73
2023/03/30 17:50:21;;;;;;;0.85;0.30;;;17.50;87.90;;;;;;5085195;28;45348;-72
2023/03/30 17:52:50;;;;;;;1.27;0.30;;;17.50;88.10;;;;;;5085231;28;45359;-73
2023/03/30 17:55:18;;;;;;;0.75;0.32;;;17.50;88.20;;;;;;5081968;28;45506;-73
2023/03/30 17:57:45;;;;;;;0.80;0.20;;;17.50;88.00;;;;;;5085271;28;45492;-73
2023/03/30 18:00:19;;;;;;;0.65;0.25;;;17.50;88.50;;;;;;5085149;28;45265;-73
2023/03/30 18:02:47;;;;;;;0.65;0.35;;;17.60;88.40;;;;;;5073825;28;45245;-72
2023/03/30 18:05:14;;;;;;;0.80;0.38;;;17.50;88.20;;;;;;5085210;28;45354;-72
2023/03/30 18:07:41;;;;;;;0.80;0.30;;;17.60;87.70;;;;;;5086325;28;45336;-73
2023/03/30 18:10:22;;;;;;;1.50;0.50;;;17.50;86.80;;;;;;5086144;28;45288;-73
2023/03/30 18:12:50;;;;;;;1.00;0.38;;;17.50;87.00;;;;;;5078101;28;45218;-72
2023/03/30 18:15:18;;;;;;;1.20;0.40;;;17.50;86.70;;;;;;5084460;28;45394;-73
2023/03/30 18:17:45;;;;;;;2.47;0.57;;;17.50;85.50;;;;;;5083871;28;47911;-73
2023/03/30 18:20:20;;;;;;;1.47;0.43;;;17.50;85.40;;;;;;5084500;28;45292;-74
2023/03/30 18:22:47;;;;;;;1.58;0.43;;;17.50;86.10;;;;;;5084813;28;45345;-72
2023/03/30 18:25:16;;;;;;;1.30;0.50;;;17.50;86.40;;;;;;5083433;28;45353;-74
2023/03/30 18:27:43;;;;;;;0.68;0.20;;;17.40;86.30;;;;;;5078100;28;48060;-73
2023/03/30 18:30:23;;;;;;;1.00;0.30;;;17.40;86.50;;;;;;5083146;27;45358;-73
2023/03/30 18:32:50;;;;;;;0.83;0.33;;;17.40;87.60;;;;;;5083012;28;45426;-73
2023/03/30 18:35:18;;;;;;;1.08;0.30;;;17.40;85.60;;;;;;5076830;28;45343;-73
2023/03/30 18:37:46;;;;;;;2.42;0.50;;;17.40;85.70;;;;;;5084031;28;47279;-72
2023/03/30 18:40:17;;;;;;;0.80;0.30;;;17.40;85.70;;;;;;5084307;28;45726;-73
2023/03/30 18:42:47;;;;;;;1.42;0.32;;;17.40;85.40;;;;;;5076684;28;45448;-73
2023/03/30 18:45:16;;;;;;;1.15;0.45;;;17.40;85.90;;;;;;5084385;28;45423;-73
2023/03/30 18:47:43;;;;;;;1.70;0.45;;;17.50;85.80;;;;;;5076152;28;46586;-73
2023/03/30 18:50:20;;;;;;;0.80;0.25;;;17.50;86.60;;;;;;5076319;28;45630;-73
2023/03/30 18:52:47;;;;;;;2.67;0.47;;;17.50;86.90;;;;;;5082789;28;45570;-73
2023/03/30 18:55:15;;;;;;;1.08;0.32;;;17.50;87.10;;;;;;5078499;28;45435;-73
2023/03/30 18:57:43;;;;;;;1.27;0.30;;;17.50;87.20;;;;;;5083203;28;48005;-73
2023/03/30 19:00:18;;;;;;;0.50;0.30;;;17.50;87.30;;;;;;5081996;27;45420;-73
2023/03/30 19:02:45;;;;;;;1.52;0.50;;;17.50;87.30;;;;;;5082948;27;45521;-73
2023/03/30 19:05:12;;;;;;;2.08;0.60;;;17.50;87.30;;;;;;5088149;27;45621;-73
2023/03/30 19:07:39;;;;;;;1.45;0.30;;;17.50;87.30;;;;;;5085526;27;47532;-73
2023/03/30 19:10:10;;;;;;;1.05;0.22;;;17.50;87.30;;;;;;5083261;28;46034;-73
2023/03/30 19:12:37;;;;;;;1.80;0.50;;;17.50;87.80;;;;;;5083968;28;45281;-73
2023/03/30 19:15:06;;;;;;;1.05;0.40;;;17.50;87.60;;;;;;5083603;28;45348;-73
2023/03/30 19:17:33;;;;;;;1.20;0.40;;;17.50;87.30;;;;;;5091694;27;48850;-73
2023/03/30 19:20:00;;;;;;;2.55;0.40;;;17.50;87.60;;;;;;5086633;28;45307;-73
2023/03/30 19:22:26;;;;;;;0.30;0.28;;;17.50;87.50;;;;;;5080076;28;45291;-73
2023/03/30 19:24:53;;;;;;;2.88;0.50;;;17.50;87.70;;;;;;5083304;28;45363;-73
2023/03/30 19:27:20;;;;;;;1.40;0.55;;;17.50;87.70;;;;;;5084086;28;47662;-73
2023/03/30 19:29:47;;;;;;;2.05;0.30;;;17.50;87.70;;;;;;5082553;27;45404;-73
2023/03/30 19:32:18;;;;;;;1.13;0.60;;;17.50;87.60;;;;;;5083307;28;45290;-73
2023/03/30 19:34:45;;;;;;;0.93;0.40;;;17.60;88.00;;;;;;5079779;28;45439;-73
2023/03/30 19:37:13;;;;;;;0.85;0.40;;;17.60;88.00;;;;;;5083069;28;46587;-73
2023/03/30 19:39:40;;;;;;;1.98;0.80;;;17.60;88.00;;;;;;5079718;28;45312;-73
2023/03/30 19:42:06;;;;;;;0.75;0.32;;;17.60;87.80;;;;;;5076198;27;45257;-73
2023/03/30 19:44:33;;;;;;;1.60;0.47;;;17.60;88.00;;;;;;5087135;28;45335;-73
2023/03/30 19:47:00;;;;;;;2.70;0.65;;;17.60;87.80;;;;;;5087214;28;46439;-73
2023/03/30 19:49:28;;;;;;;1.13;0.30;;;17.60;87.70;;;;;;5086508;28;45589;-73
2023/03/30 19:51:55;;;;;;;0.93;0.60;;;17.60;88.30;;;;;;5092818;27;45328;-73
2023/03/30 19:54:22;;;;;;;0.85;0.30;;;17.60;88.40;;;;;;5089291;27;45364;-73
2023/03/30 19:56:48;;;;;;;0.68;0.20;;;17.60;88.50;;;;;;5087027;28;47768;-73
2023/03/30 19:59:15;;;;;;;0.55;0.30;;;17.50;88.60;;;;;;5087419;28;45222;-73
2023/03/30 20:01:42;;;;;;;0.68;0.20;;;17.50;88.80;;;;;;5086949;28;45329;-73
2023/03/30 20:04:09;;;;;;;1.67;0.60;;;17.50;88.90;;;;;;5087405;28;45476;-73
2023/03/30 20:06:37;;;;;;;1.15;0.30;;;17.50;88.90;;;;;;5086894;28;46278;-73
2023/03/30 20:09:04;;;;;;;0.88;0.50;;;17.50;88.70;;;;;;5094161;27;45288;-73
2023/03/30 20:11:31;;;;;;;4.20;0.77;;;17.50;88.70;;;;;;5088631;27;45474;-73
2023/03/30 20:13:57;;;;;;;1.00;0.32;;;17.50;88.60;;;;;;5090451;28;45761;-73
2023/03/30 20:16:24;;;;;;;1.00;0.60;;;17.50;88.40;;;;;;5096823;27;47124;-73
2023/03/30 20:18:53;;;;;;;0.93;0.40;;;17.50;88.40;;;;;;5090373;27;45363;-73
2023/03/30 20:21:21;;;;;;;1.33;0.47;;;17.50;88.50;;;;;;5086962;28;45323;-73
2023/03/30 20:23:49;;;;;;;0.47;0.22;;;17.50;88.70;;;;;;5081935;28;45178;-73
2023/03/30 20:26:18;;;;;;;1.05;0.50;;;17.50;88.60;;;;;;5069960;28;48179;-73
2023/03/30 20:28:45;;;;;;;0.52;0.38;;;17.50;88.80;;;;;;5086562;28;45422;-74
2023/03/30 20:31:12;;;;;;;1.42;0.40;;;17.50;88.70;;;;;;5086214;28;45293;-73
2023/03/30 20:33:39;;;;;;;0.98;0.30;;;17.50;89.00;;;;;;5085940;28;45613;-73
2023/03/30 20:36:07;;;;;;;0.32;0.20;;;17.50;88.70;;;;;;5086404;28;47933;-73
2023/03/30 20:38:38;;;;;;;1.63;0.20;;;17.50;88.90;;;;;;5086069;28;45406;-73
2023/03/30 20:41:10;;;;;;;1.23;0.40;;;17.50;89.10;;;;;;5086702;28;45415;-73
2023/03/30 20:43:45;;;;;;;0.60;0.22;;;17.50;88.60;;;;;;5086471;28;45375;-74
2023/03/30 20:46:12;;;;;;;1.25;0.30;;;17.50;89.00;;;;;;5079794;28;47578;-73
2023/03/30 20:48:40;;;;;;;0.82;0.30;;;17.50;88.80;;;;;;5086596;27;45352;-73
2023/03/30 20:51:08;;;;;;;0.63;0.30;;;17.50;88.90;;;;;;5083397;28;45450;-73
2023/03/30 20:53:35;;;;;;;0.73;0.32;;;17.50;89.10;;;;;;5084684;27;45395;-73
2023/03/30 20:56:03;;;;;;;2.08;0.40;;;17.50;89.10;;;;;;5080831;28;46308;-73
2023/03/30 20:58:31;;;;;;;0.30;0.20;;;17.50;88.90;;;;;;5086085;28;45349;-73
2023/03/30 21:00:58;;;;;;;0.98;0.38;;;17.50;89.20;;;;;;5081519;28;45523;-73
2023/03/30 21:03:28;;;;;;;0.70;0.30;;;17.50;88.90;;;;;;5086081;28;45659;-73
2023/03/30 21:06:00;;;;;;;1.38;0.40;;;17.50;88.70;;;;;;5088485;28;45630;-73
2023/03/30 21:08:27;;;;;;;0.30;0.20;;;17.50;89.00;;;;;;5084577;28;45422;-73
2023/03/30 21:10:53;;;;;;;0.50;0.20;;;17.50;88.90;;;;;;5086022;28;45398;-73
2023/03/30 21:13:20;;;;;;;0.77;0.22;;;17.50;89.20;;;;;;5085793;28;45331;-73
2023/03/30 21:15:55;;;;;;;0.32;0.22;;;17.50;88.80;;;;;;5085514;28;47145;-73
2023/03/30 21:18:22;;;;;;;0.57;0.20;;;17.50;88.70;;;;;;5082417;28;45405;-73
2023/03/30 21:20:49;;;;;;;0.20;0.20;;;17.50;88.40;;;;;;5085779;28;45375;-73
2023/03/30 21:23:16;;;;;;;1.13;0.30;;;17.50;88.40;;;;;;5083181;28;45312;-73
2023/03/30 21:25:43;;;;;;;0.22;0.20;;;17.50;88.20;;;;;;5081311;28;47245;-74
2023/03/30 21:28:10;;;;;;;0.60;0.30;;;17.50;88.10;;;;;;5085756;28;45225;-73
2023/03/30 21:30:37;;;;;;;0.47;0.28;;;17.60;88.30;;;;;;5085230;28;45294;-73
2023/03/30 21:33:06;;;;;;;0.55;0.30;;;17.60;88.30;;;;;;5085633;28;45301;-73
2023/03/30 21:35:33;;;;;;;0.90;0.47;;;17.50;88.00;;;;;;5085152;28;46058;-73
2023/03/30 21:38:00;;;;;;;2.63;0.47;;;17.60;88.00;;;;;;5079829;28;45360;-73
2023/03/30 21:40:26;;;;;;;0.63;0.38;;;17.50;87.80;;;;;;5084922;28;45361;-73
2023/03/30 21:42:53;;;;;;;0.68;0.30;;;17.50;87.60;;;;;;5082641;28;45422;-73
2023/03/30 21:45:20;;;;;;;1.48;0.45;;;17.50;87.30;;;;;;5085444;28;45307;-73
2023/03/30 21:47:47;;;;;;;0.65;0.43;;;17.50;87.70;;;;;;5085336;28;45287;-73
2023/03/30 21:50:15;;;;;;;0.50;0.50;;;17.50;87.30;;;;;;5084855;28;45417;-73
2023/03/30 21:52:41;;;;;;;1.58;0.50;;;17.50;87.70;;;;;;5085472;28;45296;-73
2023/03/30 21:55:09;;;;;;;0.82;0.32;;;17.50;87.40;;;;;;5084852;28;46617;-73
2023/03/30 21:57:35;;;;;;;1.85;0.50;;;17.50;87.40;;;;;;5085025;28;45333;-73
2023/03/30 22:00:04;;;;;;;0.35;0.30;;;17.50;87.80;;;;;;5084955;28;45468;-73
2023/03/30 22:02:30;;;;;;;1.00;0.40;;;17.50;87.90;;;;;;5084844;28;45367;-73
2023/03/30 22:04:58;;;;;;;2.88;0.65;;;17.50;87.80;;;;;;5084591;27;47477;-73
2023/03/30 22:07:26;;;;;;;2.25;0.60;;;17.60;87.70;;;;;;5084802;28;45368;-73
2023/03/30 22:09:56;;;;;;;1.45;0.50;;;17.60;87.90;;;;;;5084533;28;45208;-73
2023/03/30 22:12:23;;;;;;;1.48;0.40;;;17.60;87.80;;;;;;5084916;28;45369;-74
2023/03/30 22:14:50;;;;;;;0.63;0.40;;;17.60;87.40;;;;;;5084800;28;46602;-73
2023/03/30 22:17:17;;;;;;;1.20;0.50;;;17.60;87.80;;;;;;5073475;27;45354;-74
2023/03/30 22:19:44;;;;;;;1.65;0.40;;;17.60;87.40;;;;;;5082212;27;45312;-74
2023/03/30 22:22:10;;;;;;;0.52;0.40;;;17.60;87.40;;;;;;5085747;28;45579;-74
2023/03/30 22:24:39;;;;;;;1.58;0.40;;;17.60;87.60;;;;;;5084505;27;46584;-74
2023/03/30 22:27:07;;;;;;;1.80;0.60;;;17.60;87.30;;;;;;5085349;28;45185;-74
2023/03/30 22:29:34;;;;;;;0.40;0.32;;;17.60;87.20;;;;;;5085763;28;45296;-74
2023/03/30 22:32:01;;;;;;;1.88;0.50;;;17.60;87.40;;;;;;5079695;28;45322;-73
2023/03/30 22:34:27;;;;;;;1.05;0.43;;;17.60;87.40;;;;;;5065101;28;45264;-74
2023/03/30 22:36:54;;;;;;;0.95;0.30;;;17.60;87.40;;;;;;5078703;28;45222;-74
2023/03/30 22:39:22;;;;;;;1.05;0.50;;;17.60;87.10;;;;;;5083673;28;45419;-74
2023/03/30 22:41:50;;;;;;;0.98;0.40;;;17.60;87.30;;;;;;5085654;28;45209;-74
2023/03/30 22:44:18;;;;;;;0.25;0.15;;;17.60;87.40;;;;;;5085290;28;45476;-74
2023/03/30 22:46:45;;;;;;;0.95;0.43;;;17.60;87.30;;;;;;5080417;28;45357;-74
2023/03/30 22:49:12;;;;;;;1.85;0.57;;;17.60;87.40;;;;;;5085131;28;45229;-74
2023/03/30 22:51:44;;;;;;;1.00;0.43;;;17.60;87.30;;;;;;5088179;28;45475;-74
2023/03/30 22:54:11;;;;;;;0.60;0.50;;;17.60;87.30;;;;;;5084808;28;46401;-74
2023/03/30 22:56:38;;;;;;;0.65;0.50;;;17.60;87.10;;;;;;5084626;28;45294;-74
2023/03/30 22:59:06;;;;;;;1.13;0.60;;;17.60;86.80;;;;;;5085024;28;45458;-74
2023/03/30 23:01:33;;;;;;;1.88;0.60;;;17.60;87.10;;;;;;5084576;28;45598;-74
2023/03/30 23:04:00;;;;;;;1.45;0.43;;;17.60;87.30;;;;;;5084839;28;46292;-74
2023/03/30 23:06:27;;;;;;;1.77;0.50;;;17.60;87.00;;;;;;5079061;28;45466;-74
2023/03/30 23:08:54;;;;;;;1.23;0.30;;;17.60;87.30;;;;;;5079560;28;45204;-74
2023/03/30 23:11:21;;;;;;;0.82;0.50;;;17.60;86.60;;;;;;5084963;28;45239;-74
2023/03/30 23:13:48;;;;;;;2.15;0.22;;;17.60;86.20;;;;;;5079112;28;47975;-74
2023/03/30 23:16:16;;;;;;;0.80;0.30;;;17.60;86.90;;;;;;5084634;27;45291;-74
2023/03/30 23:18:43;;;;;;;1.38;0.40;;;17.60;86.60;;;;;;5084717;28;45270;-74
2023/03/30 23:21:12;;;;;;;0.95;0.40;;;17.60;86.70;;;;;;5085092;28;45594;-74
2023/03/30 23:23:40;;;;;;;0.90;0.40;;;17.60;86.50;;;;;;5073869;28;48556;-74
2023/03/30 23:26:09;;;;;;;1.05;0.47;;;17.60;86.50;;;;;;5074406;28;45236;-74
2023/03/30 23:28:36;;;;;;;1.25;0.50;;;17.60;86.80;;;;;;5084933;28;45282;-74
2023/03/30 23:31:07;;;;;;;1.02;0.40;;;17.60;86.30;;;;;;5084614;28;45284;-74
2023/03/30 23:33:35;;;;;;;1.33;0.40;;;17.60;86.70;;;;;;5084593;28;47810;-74
2023/03/30 23:36:02;;;;;;;1.48;0.75;;;17.60;86.40;;;;;;5084292;28;45339;-74
2023/03/30 23:38:30;;;;;;;1.25;0.50;;;17.60;86.50;;;;;;5084184;28;45549;-74
2023/03/30 23:40:57;;;;;;;1.05;0.50;;;17.60;86.80;;;;;;5084751;28;45566;-74
2023/03/30 23:43:24;;;;;;;0.55;0.32;;;17.60;86.80;;;;;;5087542;28;46288;-74
2023/03/30 23:45:52;;;;;;;1.17;0.28;;;17.60;86.60;;;;;;5084673;28;45239;-74
2023/03/30 23:48:19;;;;;;;1.70;0.50;;;17.60;86.50;;;;;;5084900;28;45343;-74
2023/03/30 23:50:47;;;;;;;0.98;0.20;;;17.60;86.20;;;;;;5084391;28;45431;-74
2023/03/30 23:53:14;;;;;;;2.65;0.30;;;17.60;86.20;;;;;;5084054;28;46578;-74
2023/03/30 23:55:41;;;;;;;1.17;0.40;;;17.60;86.40;;;;;;5084203;28;45358;-74
2023/03/30 23:58:08;;;;;;;1.67;0.55;;;17.60;86.20;;;;;;5084207;28;45420;-74
